sensor_id;sensor_type;location;lat;lon;timestamp;pressure;altitude;pressure_sealevel;temperature;humidity
70254;BME280;57649;42.968;1.608;2023-02-26T00:01:12;96158.41;;;4.33;94.98
70254;BME280;57649;42.968;1.608;2023-02-26T00:03:37;96153.13;;;4.33;96.70
70254;BME280;57649;42.968;1.608;2023-02-26T00:06:03;96157.44;;;4.34;99.13
70254;BME280;57649;42.968;1.608;2023-02-26T00:08:29;96170.03;;;4.40;99.32
70254;BME280;57649;42.968;1.608;2023-02-26T00:10:56;96166.06;;;4.44;98.63
70254;BME280;57649;42.968;1.608;2023-02-26T00:13:21;96166.38;;;4.33;99.79
70254;BME280;57649;42.968;1.608;2023-02-26T00:15:50;96174.38;;;4.50;99.87
70254;BME280;57649;42.968;1.608;2023-02-26T00:18:39;96167.75;;;4.46;100.00
70254;BME280;57649;42.968;1.608;2023-02-26T00:21:05;96162.03;;;4.32;100.00
70254;BME280;57649;42.968;1.608;2023-02-26T00:23:30;96156.41;;;4.27;100.00
70254;BME280;57649;42.968;1.608;2023-02-26T00:25:57;96159.16;;;4.09;100.00
70254;BME280;57649;42.968;1.608;2023-02-26T00:28:22;96165.53;;;3.98;100.00
70254;BME280;57649;42.968;1.608;2023-02-26T00:30:48;96160.97;;;4.09;100.00
70254;BME280;57649;42.968;1.608;2023-02-26T00:33:14;96163.28;;;4.12;100.00
70254;BME280;57649;42.968;1.608;2023-02-26T00:35:39;96154.72;;;4.18;100.00
70254;BME280;57649;42.968;1.608;2023-02-26T00:38:12;96160.63;;;4.12;100.00
70254;BME280;57649;42.968;1.608;2023-02-26T00:40:48;96157.31;;;4.10;100.00
70254;BME280;57649;42.968;1.608;2023-02-26T00:43:19;96152.97;;;4.00;100.00
70254;BME280;57649;42.968;1.608;2023-02-26T00:46:03;96154.91;;;3.90;100.00
70254;BME280;57649;42.968;1.608;2023-02-26T00:54:34;96163.38;;;3.67;100.00
70254;BME280;57649;42.968;1.608;2023-02-26T00:57:00;96162.03;;;3.63;100.00
70254;BME280;57649;42.968;1.608;2023-02-26T00:59:28;96165.22;;;3.49;100.00
70254;BME280;57649;42.968;1.608;2023-02-26T01:01:53;96172.50;;;3.47;100.00
70254;BME280;57649;42.968;1.608;2023-02-26T01:04:21;96162.47;;;3.33;100.00
70254;BME280;57649;42.968;1.608;2023-02-26T01:06:51;96165.09;;;3.33;100.00
70254;BME280;57649;42.968;1.608;2023-02-26T01:09:33;96168.63;;;3.15;100.00
70254;BME280;57649;42.968;1.608;2023-02-26T01:12:02;96155.22;;;3.17;100.00
70254;BME280;57649;42.968;1.608;2023-02-26T01:14:29;96163.63;;;3.12;100.00
70254;BME280;57649;42.968;1.608;2023-02-26T01:17:20;96160.72;;;3.23;100.00
70254;BME280;57649;42.968;1.608;2023-02-26T01:20:12;96160.50;;;3.35;100.00
70254;BME280;57649;42.968;1.608;2023-02-26T01:22:43;96144.34;;;3.46;100.00
70254;BME280;57649;42.968;1.608;2023-02-26T01:25:17;96147.19;;;3.44;100.00
70254;BME280;57649;42.968;1.608;2023-02-26T01:27:43;96147.22;;;3.53;100.00
70254;BME280;57649;42.968;1.608;2023-02-26T01:30:09;96136.19;;;3.57;100.00
70254;BME280;57649;42.968;1.608;2023-02-26T01:32:58;96129.75;;;3.60;100.00
70254;BME280;57649;42.968;1.608;2023-02-26T01:41:26;96132.19;;;3.79;100.00
70254;BME280;57649;42.968;1.608;2023-02-26T01:47:08;96123.06;;;3.74;100.00
70254;BME280;57649;42.968;1.608;2023-02-26T01:49:35;96116.63;;;3.50;100.00
70254;BME280;57649;42.968;1.608;2023-02-26T01:52:02;96104.53;;;3.47;100.00
70254;BME280;57649;42.968;1.608;2023-02-26T01:54:34;96109.72;;;3.57;100.00
70254;BME280;57649;42.968;1.608;2023-02-26T01:57:17;96088.47;;;3.41;100.00
70254;BME280;57649;42.968;1.608;2023-02-26T01:59:45;96091.63;;;3.44;100.00
70254;BME280;57649;42.968;1.608;2023-02-26T02:02:15;96088.63;;;3.39;100.00
70254;BME280;57649;42.968;1.608;2023-02-26T02:04:41;96085.06;;;3.31;100.00
70254;BME280;57649;42.968;1.608;2023-02-26T02:07:08;96088.03;;;3.27;100.00
70254;BME280;57649;42.968;1.608;2023-02-26T02:09:33;96093.84;;;3.31;100.00
70254;BME280;57649;42.968;1.608;2023-02-26T02:12:07;96092.78;;;3.24;100.00
70254;BME280;57649;42.968;1.608;2023-02-26T02:17:46;96089.41;;;3.32;100.00
70254;BME280;57649;42.968;1.608;2023-02-26T02:28:39;96082.56;;;3.55;100.00
70254;BME280;57649;42.968;1.608;2023-02-26T02:31:15;96079.97;;;3.63;100.00
70254;BME280;57649;42.968;1.608;2023-02-26T02:33:56;96082.56;;;3.55;100.00
70254;BME280;57649;42.968;1.608;2023-02-26T02:39:04;96090.56;;;3.63;100.00
70254;BME280;57649;42.968;1.608;2023-02-26T02:41:34;96085.13;;;3.65;100.00
70254;BME280;57649;42.968;1.608;2023-02-26T02:44:06;96091.91;;;3.67;100.00
70254;BME280;57649;42.968;1.608;2023-02-26T02:46:36;96099.25;;;3.74;100.00
70254;BME280;57649;42.968;1.608;2023-02-26T02:49:13;96088.06;;;3.62;100.00
70254;BME280;57649;42.968;1.608;2023-02-26T02:51:53;96088.56;;;3.57;100.00
70254;BME280;57649;42.968;1.608;2023-02-26T02:54:32;96091.81;;;3.51;100.00
70254;BME280;57649;42.968;1.608;2023-02-26T02:57:19;96102.41;;;3.51;100.00
70254;BME280;57649;42.968;1.608;2023-02-26T02:59:52;96091.25;;;3.39;100.00
70254;BME280;57649;42.968;1.608;2023-02-26T03:05:07;96084.22;;;3.48;100.00
70254;BME280;57649;42.968;1.608;2023-02-26T03:07:36;96089.56;;;3.64;100.00
70254;BME280;57649;42.968;1.608;2023-02-26T03:10:04;96090.06;;;3.60;100.00
70254;BME280;57649;42.968;1.608;2023-02-26T03:12:31;96087.78;;;3.65;100.00
70254;BME280;57649;42.968;1.608;2023-02-26T03:14:57;96083.28;;;3.57;100.00
70254;BME280;57649;42.968;1.608;2023-02-26T03:17:30;96099.66;;;3.61;100.00
70254;BME280;57649;42.968;1.608;2023-02-26T03:23:15;96100.47;;;3.61;100.00
70254;BME280;57649;42.968;1.608;2023-02-26T03:25:49;96093.50;;;3.52;100.00
70254;BME280;57649;42.968;1.608;2023-02-26T03:28:29;96093.84;;;3.57;100.00
70254;BME280;57649;42.968;1.608;2023-02-26T03:31:14;96103.69;;;3.73;100.00
70254;BME280;57649;42.968;1.608;2023-02-26T03:33:59;96098.09;;;3.76;100.00
70254;BME280;57649;42.968;1.608;2023-02-26T03:36:44;96100.34;;;3.63;100.00
70254;BME280;57649;42.968;1.608;2023-02-26T03:39:26;96089.06;;;3.61;100.00
70254;BME280;57649;42.968;1.608;2023-02-26T03:42:01;96097.09;;;3.77;100.00
70254;BME280;57649;42.968;1.608;2023-02-26T03:44:50;96097.88;;;3.70;100.00
70254;BME280;57649;42.968;1.608;2023-02-26T03:47:17;96105.34;;;3.74;100.00
70254;BME280;57649;42.968;1.608;2023-02-26T03:50:00;96105.44;;;3.64;100.00
70254;BME280;57649;42.968;1.608;2023-02-26T03:52:30;96101.81;;;3.65;100.00
70254;BME280;57649;42.968;1.608;2023-02-26T03:55:16;96103.94;;;3.62;100.00
70254;BME280;57649;42.968;1.608;2023-02-26T03:57:42;96109.13;;;3.72;100.00
70254;BME280;57649;42.968;1.608;2023-02-26T04:00:10;96110.56;;;3.58;100.00
70254;BME280;57649;42.968;1.608;2023-02-26T04:02:58;96102.88;;;3.46;100.00
70254;BME280;57649;42.968;1.608;2023-02-26T04:05:28;96102.03;;;3.46;100.00
70254;BME280;57649;42.968;1.608;2023-02-26T04:07:56;96092.84;;;3.58;100.00
70254;BME280;57649;42.968;1.608;2023-02-26T04:10:31;96097.50;;;3.64;100.00
70254;BME280;57649;42.968;1.608;2023-02-26T04:12:59;96091.25;;;3.65;100.00
70254;BME280;57649;42.968;1.608;2023-02-26T04:15:26;96089.38;;;3.58;100.00
70254;BME280;57649;42.968;1.608;2023-02-26T04:17:51;96090.50;;;3.55;100.00
70254;BME280;57649;42.968;1.608;2023-02-26T04:20:16;96088.03;;;3.54;100.00
70254;BME280;57649;42.968;1.608;2023-02-26T04:22:42;96088.56;;;3.57;100.00
70254;BME280;57649;42.968;1.608;2023-02-26T04:25:07;96079.63;;;3.58;100.00
70254;BME280;57649;42.968;1.608;2023-02-26T04:27:33;96082.63;;;3.63;100.00
70254;BME280;57649;42.968;1.608;2023-02-26T04:29:58;96083.44;;;3.64;100.00
70254;BME280;57649;42.968;1.608;2023-02-26T04:32:24;96077.34;;;3.63;100.00
70254;BME280;57649;42.968;1.608;2023-02-26T04:34:49;96091.53;;;3.62;100.00
70254;BME280;57649;42.968;1.608;2023-02-26T04:37:14;96094.81;;;3.56;100.00
70254;BME280;57649;42.968;1.608;2023-02-26T04:39:40;96095.66;;;3.57;100.00
70254;BME280;57649;42.968;1.608;2023-02-26T04:42:05;96104.75;;;3.54;100.00
70254;BME280;57649;42.968;1.608;2023-02-26T04:44:32;96106.38;;;3.55;100.00
70254;BME280;57649;42.968;1.608;2023-02-26T04:46:58;96090.00;;;3.52;100.00
70254;BME280;57649;42.968;1.608;2023-02-26T04:49:23;96088.56;;;3.57;100.00
70254;BME280;57649;42.968;1.608;2023-02-26T04:51:49;96100.16;;;3.64;100.00
70254;BME280;57649;42.968;1.608;2023-02-26T04:54:15;96096.53;;;3.65;100.00
70254;BME280;57649;42.968;1.608;2023-02-26T04:56:40;96097.19;;;3.67;100.00
70254;BME280;57649;42.968;1.608;2023-02-26T04:59:06;96094.25;;;3.71;100.00
70254;BME280;57649;42.968;1.608;2023-02-26T05:01:32;96093.59;;;3.69;100.00
70254;BME280;57649;42.968;1.608;2023-02-26T05:03:57;96096.75;;;3.72;100.00
70254;BME280;57649;42.968;1.608;2023-02-26T05:06:23;96089.47;;;3.74;99.77
70254;BME280;57649;42.968;1.608;2023-02-26T05:08:48;96086.81;;;3.74;100.00
70254;BME280;57649;42.968;1.608;2023-02-26T05:11:13;96090.81;;;3.78;100.00
70254;BME280;57649;42.968;1.608;2023-02-26T05:13:39;96081.91;;;3.79;98.50
70254;BME280;57649;42.968;1.608;2023-02-26T05:16:05;96089.34;;;3.84;100.00
70254;BME280;57649;42.968;1.608;2023-02-26T05:18:31;96084.78;;;3.94;100.00
70254;BME280;57649;42.968;1.608;2023-02-26T05:20:57;96080.78;;;3.90;99.45
70254;BME280;57649;42.968;1.608;2023-02-26T05:23:23;96085.00;;;3.75;100.00
70254;BME280;57649;42.968;1.608;2023-02-26T05:25:48;96097.13;;;3.85;100.00
70254;BME280;57649;42.968;1.608;2023-02-26T05:28:14;96089.66;;;3.81;99.23
70254;BME280;57649;42.968;1.608;2023-02-26T05:30:40;96097.66;;;3.89;99.04
70254;BME280;57649;42.968;1.608;2023-02-26T05:33:06;96096.31;;;3.85;100.00
70254;BME280;57649;42.968;1.608;2023-02-26T05:35:31;96098.59;;;3.80;100.00
70254;BME280;57649;42.968;1.608;2023-02-26T05:37:57;96102.59;;;3.84;100.00
70254;BME280;57649;42.968;1.608;2023-02-26T05:40:22;96099.56;;;3.79;100.00
70254;BME280;57649;42.968;1.608;2023-02-26T05:42:48;96108.63;;;4.02;99.24
70254;BME280;57649;42.968;1.608;2023-02-26T05:45:13;96105.63;;;3.97;100.00
70254;BME280;57649;42.968;1.608;2023-02-26T05:47:39;96096.38;;;4.01;100.00
70254;BME280;57649;42.968;1.608;2023-02-26T05:50:06;96104.63;;;3.90;100.00
70254;BME280;57649;42.968;1.608;2023-02-26T05:52:31;96114.19;;;3.91;100.00
70254;BME280;57649;42.968;1.608;2023-02-26T05:54:57;96105.22;;;3.84;99.19
70254;BME280;57649;42.968;1.608;2023-02-26T05:57:23;96110.41;;;3.94;100.00
70254;BME280;57649;42.968;1.608;2023-02-26T05:59:49;96113.22;;;3.92;100.00
70254;BME280;57649;42.968;1.608;2023-02-26T06:02:14;96116.19;;;3.89;100.00
70254;BME280;57649;42.968;1.608;2023-02-26T06:04:39;96122.97;;;3.92;100.00
70254;BME280;57649;42.968;1.608;2023-02-26T06:07:05;96130.72;;;3.85;100.00
70254;BME280;57649;42.968;1.608;2023-02-26T06:09:30;96114.00;;;3.84;100.00
70254;BME280;57649;42.968;1.608;2023-02-26T06:11:56;96119.97;;;3.87;100.00
70254;BME280;57649;42.968;1.608;2023-02-26T06:14:21;96120.69;;;3.97;100.00
70254;BME280;57649;42.968;1.608;2023-02-26T06:16:47;96129.53;;;3.79;100.00
70254;BME280;57649;42.968;1.608;2023-02-26T06:19:12;96118.22;;;3.69;100.00
70254;BME280;57649;42.968;1.608;2023-02-26T06:21:38;96136.19;;;3.57;100.00
70254;BME280;57649;42.968;1.608;2023-02-26T06:24:03;96140.56;;;3.66;100.00
70254;BME280;57649;42.968;1.608;2023-02-26T06:26:29;96131.88;;;3.56;100.00
70254;BME280;57649;42.968;1.608;2023-02-26T06:28:54;96127.72;;;3.54;100.00
70254;BME280;57649;42.968;1.608;2023-02-26T06:31:19;96127.56;;;3.55;100.00
70254;BME280;57649;42.968;1.608;2023-02-26T06:33:45;96122.47;;;3.62;100.00
70254;BME280;57649;42.968;1.608;2023-02-26T06:36:10;96138.47;;;3.52;100.00
70254;BME280;57649;42.968;1.608;2023-02-26T06:38:36;96125.91;;;3.54;100.00
70254;BME280;57649;42.968;1.608;2023-02-26T06:41:01;96147.13;;;3.62;100.00
70254;BME280;57649;42.968;1.608;2023-02-26T06:43:27;96143.81;;;3.60;100.00
70254;BME280;57649;42.968;1.608;2023-02-26T06:45:56;96141.47;;;3.57;100.00
70254;BME280;57649;42.968;1.608;2023-02-26T06:48:22;96135.34;;;3.57;100.00
70254;BME280;57649;42.968;1.608;2023-02-26T06:50:47;96143.34;;;3.65;100.00
70254;BME280;57649;42.968;1.608;2023-02-26T06:53:12;96155.84;;;3.81;100.00
70254;BME280;57649;42.968;1.608;2023-02-26T06:55:42;96160.47;;;3.79;100.00
70254;BME280;57649;42.968;1.608;2023-02-26T06:58:08;96156.47;;;3.75;100.00
70254;BME280;57649;42.968;1.608;2023-02-26T07:00:33;96157.81;;;3.79;100.00
70254;BME280;57649;42.968;1.608;2023-02-26T07:03:00;96154.50;;;3.77;100.00
70254;BME280;57649;42.968;1.608;2023-02-26T07:05:25;96165.16;;;3.85;100.00
70254;BME280;57649;42.968;1.608;2023-02-26T07:07:51;96162.13;;;3.80;100.00
70254;BME280;57649;42.968;1.608;2023-02-26T07:10:16;96156.53;;;3.83;100.00
70254;BME280;57649;42.968;1.608;2023-02-26T07:12:42;96166.41;;;3.81;100.00
70254;BME280;57649;42.968;1.608;2023-02-26T07:15:07;96168.63;;;3.85;100.00
70254;BME280;57649;42.968;1.608;2023-02-26T07:17:33;96168.56;;;3.77;100.00
70254;BME280;57649;42.968;1.608;2023-02-26T07:19:58;96171.41;;;3.84;100.00
70254;BME280;57649;42.968;1.608;2023-02-26T07:22:30;96167.13;;;3.83;100.00
70254;BME280;57649;42.968;1.608;2023-02-26T07:24:56;96163.47;;;3.84;100.00
70254;BME280;57649;42.968;1.608;2023-02-26T07:27:24;96168.81;;;3.92;100.00
70254;BME280;57649;42.968;1.608;2023-02-26T07:29:49;96169.50;;;3.94;100.00
70254;BME280;57649;42.968;1.608;2023-02-26T07:32:15;96168.16;;;3.90;100.00
70254;BME280;57649;42.968;1.608;2023-02-26T07:34:40;96186.06;;;3.96;100.00
70254;BME280;57649;42.968;1.608;2023-02-26T07:37:06;96178.03;;;3.88;100.00
70254;BME280;57649;42.968;1.608;2023-02-26T07:39:32;96194.69;;;4.07;100.00
70254;BME280;57649;42.968;1.608;2023-02-26T07:41:57;96193.69;;;3.99;100.00
70254;BME280;57649;42.968;1.608;2023-02-26T07:44:22;96200.47;;;4.02;100.00
70254;BME280;57649;42.968;1.608;2023-02-26T07:46:48;96199.66;;;4.01;100.00
70254;BME280;57649;42.968;1.608;2023-02-26T07:49:14;96217.19;;;4.02;100.00
70254;BME280;57649;42.968;1.608;2023-02-26T07:51:39;96212.94;;;4.10;100.00
70254;BME280;57649;42.968;1.608;2023-02-26T07:54:06;96220.59;;;3.87;100.00
70254;BME280;57649;42.968;1.608;2023-02-26T07:56:32;96215.97;;;3.44;100.00
70254;BME280;57649;42.968;1.608;2023-02-26T07:58:57;96223.91;;;3.26;100.00
70254;BME280;57649;42.968;1.608;2023-02-26T08:01:24;96234.63;;;3.25;100.00
70254;BME280;57649;42.968;1.608;2023-02-26T08:03:49;96235.97;;;3.11;100.00
70254;BME280;57649;42.968;1.608;2023-02-26T08:06:14;96243.63;;;3.14;100.00
70254;BME280;57649;42.968;1.608;2023-02-26T08:08:40;96243.47;;;3.16;100.00
70254;BME280;57649;42.968;1.608;2023-02-26T08:11:05;96245.97;;;3.17;100.00
70254;BME280;57649;42.968;1.608;2023-02-26T08:13:31;96246.88;;;3.08;100.00
70254;BME280;57649;42.968;1.608;2023-02-26T08:15:56;96255.53;;;3.00;100.00
70254;BME280;57649;42.968;1.608;2023-02-26T08:18:22;96258.50;;;2.97;100.00
70254;BME280;57649;42.968;1.608;2023-02-26T08:20:50;96269.81;;;2.89;100.00
70254;BME280;57649;42.968;1.608;2023-02-26T08:23:16;96268.28;;;2.87;100.00
70254;BME280;57649;42.968;1.608;2023-02-26T08:25:42;96266.09;;;2.82;100.00
70254;BME280;57649;42.968;1.608;2023-02-26T08:28:07;96259.59;;;2.77;100.00
70254;BME280;57649;42.968;1.608;2023-02-26T08:30:33;96262.38;;;2.75;100.00
70254;BME280;57649;42.968;1.608;2023-02-26T08:32:58;96264.63;;;2.70;100.00
70254;BME280;57649;42.968;1.608;2023-02-26T08:35:24;96271.81;;;2.78;100.00
70254;BME280;57649;42.968;1.608;2023-02-26T08:37:49;96276.84;;;2.71;100.00
70254;BME280;57649;42.968;1.608;2023-02-26T08:40:14;96271.63;;;2.61;100.00
70254;BME280;57649;42.968;1.608;2023-02-26T08:42:40;96275.09;;;2.62;100.00
70254;BME280;57649;42.968;1.608;2023-02-26T08:45:06;96283.59;;;2.56;100.00
70254;BME280;57649;42.968;1.608;2023-02-26T08:47:31;96277.91;;;2.60;100.00
70254;BME280;57649;42.968;1.608;2023-02-26T08:49:57;96283.88;;;2.53;100.00
70254;BME280;57649;42.968;1.608;2023-02-26T08:52:23;96277.25;;;2.48;100.00
70254;BME280;57649;42.968;1.608;2023-02-26T08:54:49;96293.59;;;2.62;100.00
70254;BME280;57649;42.968;1.608;2023-02-26T08:57:14;96291.28;;;2.49;100.00
70254;BME280;57649;42.968;1.608;2023-02-26T08:59:40;96308.75;;;2.60;100.00
70254;BME280;57649;42.968;1.608;2023-02-26T09:02:06;96301.81;;;2.59;100.00
70254;BME280;57649;42.968;1.608;2023-02-26T09:04:32;96304.16;;;2.62;100.00
70254;BME280;57649;42.968;1.608;2023-02-26T09:06:57;96312.63;;;2.65;100.00
70254;BME280;57649;42.968;1.608;2023-02-26T09:09:22;96311.72;;;2.57;100.00
70254;BME280;57649;42.968;1.608;2023-02-26T09:11:48;96309.22;;;2.55;100.00
70254;BME280;57649;42.968;1.608;2023-02-26T09:14:13;96307.56;;;2.44;100.00
70254;BME280;57649;42.968;1.608;2023-02-26T09:16:39;96316.47;;;2.43;100.00
70254;BME280;57649;42.968;1.608;2023-02-26T09:19:05;96309.94;;;2.47;100.00
70254;BME280;57649;42.968;1.608;2023-02-26T09:21:31;96305.63;;;2.46;100.00
70254;BME280;57649;42.968;1.608;2023-02-26T09:23:57;96326.44;;;2.59;100.00
70254;BME280;57649;42.968;1.608;2023-02-26T09:26:22;96328.25;;;2.59;100.00
70254;BME280;57649;42.968;1.608;2023-02-26T09:28:48;96325.69;;;2.67;100.00
70254;BME280;57649;42.968;1.608;2023-02-26T09:31:13;96323.72;;;2.69;100.00
70254;BME280;57649;42.968;1.608;2023-02-26T09:33:39;96326.03;;;2.82;100.00
70254;BME280;57649;42.968;1.608;2023-02-26T09:36:05;96334.81;;;2.82;100.00
70254;BME280;57649;42.968;1.608;2023-02-26T09:38:30;96346.81;;;2.77;100.00
70254;BME280;57649;42.968;1.608;2023-02-26T09:41:02;96341.81;;;2.74;100.00
70254;BME280;57649;42.968;1.608;2023-02-26T09:46:30;96353.34;;;2.73;100.00
70254;BME280;57649;42.968;1.608;2023-02-26T09:51:55;96350.09;;;2.88;100.00
70254;BME280;57649;42.968;1.608;2023-02-26T09:54:28;96363.78;;;2.74;97.54
70254;BME280;57649;42.968;1.608;2023-02-26T09:56:57;96363.91;;;2.82;97.93
70254;BME280;57649;42.968;1.608;2023-02-26T09:59:26;96368.50;;;2.80;98.70
70254;BME280;57649;42.968;1.608;2023-02-26T10:02:04;96357.59;;;2.93;99.50
70254;BME280;57649;42.968;1.608;2023-02-26T10:05:07;96365.53;;;2.93;96.41
70254;BME280;57649;42.968;1.608;2023-02-26T10:07:58;96368.00;;;2.95;97.71
70254;BME280;57649;42.968;1.608;2023-02-26T10:10:39;96372.28;;;3.05;96.95
70254;BME280;57649;42.968;1.608;2023-02-26T10:16:13;96376.09;;;2.93;93.03
70254;BME280;57649;42.968;1.608;2023-02-26T10:18:45;96381.00;;;3.16;96.72
70254;BME280;57649;42.968;1.608;2023-02-26T10:21:17;96376.44;;;3.08;92.55
70254;BME280;57649;42.968;1.608;2023-02-26T10:23:52;96383.53;;;3.07;90.52
70254;BME280;57649;42.968;1.608;2023-02-26T10:26:34;96375.91;;;3.04;92.30
70254;BME280;57649;42.968;1.608;2023-02-26T10:34:25;96382.16;;;3.31;91.12
70254;BME280;57649;42.968;1.608;2023-02-26T10:39:22;96392.59;;;3.33;89.29
70254;BME280;57649;42.968;1.608;2023-02-26T10:41:51;96393.97;;;3.09;85.89
70254;BME280;57649;42.968;1.608;2023-02-26T10:47:26;96392.31;;;3.36;88.03
70254;BME280;57649;42.968;1.608;2023-02-26T10:49:59;96392.84;;;3.39;88.45
70254;BME280;57649;42.968;1.608;2023-02-26T10:52:27;96403.13;;;3.42;90.51
70254;BME280;57649;42.968;1.608;2023-02-26T10:57:37;96396.28;;;3.22;87.90
70254;BME280;57649;42.968;1.608;2023-02-26T11:00:05;96403.13;;;3.42;87.35
70254;BME280;57649;42.968;1.608;2023-02-26T11:05:04;96384.88;;;3.21;85.88
70254;BME280;57649;42.968;1.608;2023-02-26T11:07:30;96381.09;;;3.24;85.90
70254;BME280;57649;42.968;1.608;2023-02-26T11:09:57;96381.72;;;3.36;86.61
70254;BME280;57649;42.968;1.608;2023-02-26T11:12:24;96389.75;;;3.44;87.62
70254;BME280;57649;42.968;1.608;2023-02-26T11:14:50;96386.41;;;3.42;85.92
70254;BME280;57649;42.968;1.608;2023-02-26T11:17:21;96373.03;;;3.43;85.00
70254;BME280;57649;42.968;1.608;2023-02-26T11:19:54;96386.78;;;3.29;82.82
70254;BME280;57649;42.968;1.608;2023-02-26T11:22:21;96377.97;;;3.56;84.17
70254;BME280;57649;42.968;1.608;2023-02-26T11:24:48;96381.31;;;3.76;83.30
70254;BME280;57649;42.968;1.608;2023-02-26T11:27:31;96389.50;;;3.83;79.66
70254;BME280;57649;42.968;1.608;2023-02-26T11:32:36;96390.03;;;3.69;80.17
70254;BME280;57649;42.968;1.608;2023-02-26T11:35:06;96391.75;;;3.78;80.48
70254;BME280;57649;42.968;1.608;2023-02-26T11:37:37;96397.53;;;3.45;77.07
70254;BME280;57649;42.968;1.608;2023-02-26T11:40:15;96386.00;;;3.64;80.46
70254;BME280;57649;42.968;1.608;2023-02-26T11:42:57;96386.09;;;3.73;79.13
70254;BME280;57649;42.968;1.608;2023-02-26T11:45:23;96383.97;;;3.76;79.32
70254;BME280;57649;42.968;1.608;2023-02-26T11:47:57;96376.63;;;3.52;78.94
70254;BME280;57649;42.968;1.608;2023-02-26T11:50:24;96392.00;;;3.66;79.63
70254;BME280;57649;42.968;1.608;2023-02-26T11:52:55;96382.53;;;3.82;79.17
70254;BME280;57649;42.968;1.608;2023-02-26T11:55:31;96386.16;;;3.81;78.41
70254;BME280;57649;42.968;1.608;2023-02-26T11:57:57;96372.59;;;3.66;78.75
70254;BME280;57649;42.968;1.608;2023-02-26T12:00:24;96389.47;;;3.47;76.89
70254;BME280;57649;42.968;1.608;2023-02-26T12:02:50;96379.94;;;3.54;79.85
70254;BME280;57649;42.968;1.608;2023-02-26T12:05:16;96384.63;;;3.60;78.05
70254;BME280;57649;42.968;1.608;2023-02-26T12:07:43;96382.47;;;3.74;81.59
70254;BME280;57649;42.968;1.608;2023-02-26T12:10:35;96378.41;;;3.52;79.05
70254;BME280;57649;42.968;1.608;2023-02-26T12:13:29;96379.94;;;3.54;78.23
70254;BME280;57649;42.968;1.608;2023-02-26T12:16:06;96384.59;;;3.42;79.09
70254;BME280;57649;42.968;1.608;2023-02-26T12:18:58;96374.69;;;3.26;79.34
70254;BME280;57649;42.968;1.608;2023-02-26T12:27:08;96379.88;;;3.18;81.42
70254;BME280;57649;42.968;1.608;2023-02-26T12:32:32;96377.63;;;3.23;80.79
70254;BME280;57649;42.968;1.608;2023-02-26T12:53:44;96339.19;;;3.47;78.99
70254;BME280;57649;42.968;1.608;2023-02-26T13:02:52;96346.22;;;3.56;77.34
70254;BME280;57649;42.968;1.608;2023-02-26T13:05:43;96357.69;;;3.47;76.70
70254;BME280;57649;42.968;1.608;2023-02-26T13:08:08;96317.47;;;3.25;77.00
70254;BME280;57649;42.968;1.608;2023-02-26T13:16:13;96326.25;;;3.80;73.78
70254;BME280;57649;42.968;1.608;2023-02-26T13:21:40;96326.00;;;4.09;72.85
70254;BME280;57649;42.968;1.608;2023-02-26T13:24:19;96343.13;;;4.23;71.98
70254;BME280;57649;42.968;1.608;2023-02-26T13:26:46;96332.31;;;4.69;70.01
70254;BME280;57649;42.968;1.608;2023-02-26T13:29:17;96338.59;;;4.94;68.94
70254;BME280;57649;42.968;1.608;2023-02-26T13:31:52;96324.53;;;5.01;69.25
70254;BME280;57649;42.968;1.608;2023-02-26T13:34:44;96283.78;;;4.68;68.89
70254;BME280;57649;42.968;1.608;2023-02-26T13:37:44;96316.19;;;4.88;69.82
70254;BME280;57649;42.968;1.608;2023-02-26T13:46:15;96317.56;;;4.66;69.88
70254;BME280;57649;42.968;1.608;2023-02-26T13:51:47;96337.28;;;3.93;69.13
70254;BME280;57649;42.968;1.608;2023-02-26T14:01:56;96341.00;;;3.82;72.56
70254;BME280;57649;42.968;1.608;2023-02-26T14:04:29;96342.97;;;3.80;72.58
70254;BME280;57649;42.968;1.608;2023-02-26T14:07:12;96343.50;;;4.02;74.67
70254;BME280;57649;42.968;1.608;2023-02-26T14:10:00;96342.00;;;3.99;73.34
70254;BME280;57649;42.968;1.608;2023-02-26T14:12:36;96349.94;;;3.99;71.74
70254;BME280;57649;42.968;1.608;2023-02-26T14:22:46;96348.63;;;4.03;71.88
70254;BME280;57649;42.968;1.608;2023-02-26T14:27:49;96354.03;;;4.38;74.54
70254;BME280;57649;42.968;1.608;2023-02-26T14:30:16;96360.41;;;4.27;71.18
70254;BME280;57649;42.968;1.608;2023-02-26T14:35:24;96372.53;;;3.94;74.73
70254;BME280;57649;42.968;1.608;2023-02-26T14:37:57;96372.31;;;3.87;74.68
70254;BME280;57649;42.968;1.608;2023-02-26T14:40:24;96377.25;;;3.82;74.45
70254;BME280;57649;42.968;1.608;2023-02-26T14:42:58;96375.03;;;3.95;74.63
70254;BME280;57649;42.968;1.608;2023-02-26T14:45:35;96391.16;;;4.02;74.28
70254;BME280;57649;42.968;1.608;2023-02-26T14:48:04;96393.72;;;4.12;75.15
70254;BME280;57649;42.968;1.608;2023-02-26T14:50:52;96397.75;;;4.16;75.22
70254;BME280;57649;42.968;1.608;2023-02-26T14:53:43;96391.44;;;4.35;75.17
70254;BME280;57649;42.968;1.608;2023-02-26T15:02:21;96390.53;;;4.08;74.33
70254;BME280;57649;42.968;1.608;2023-02-26T15:10:33;96409.22;;;4.07;74.67
70254;BME280;57649;42.968;1.608;2023-02-26T15:13:24;96413.63;;;3.98;73.41
70254;BME280;57649;42.968;1.608;2023-02-26T15:16:03;96413.25;;;4.11;72.60
70254;BME280;57649;42.968;1.608;2023-02-26T15:22:08;96401.84;;;4.54;71.93
70254;BME280;57649;42.968;1.608;2023-02-26T15:24:37;96410.75;;;4.71;70.25
70254;BME280;57649;42.968;1.608;2023-02-26T15:27:06;96417.94;;;4.61;71.98
70254;BME280;57649;42.968;1.608;2023-02-26T15:29:35;96427.00;;;4.76;72.58
70254;BME280;57649;42.968;1.608;2023-02-26T15:32:20;96401.94;;;4.44;69.22
70254;BME280;57649;42.968;1.608;2023-02-26T15:35:38;96411.03;;;4.24;69.25
70254;BME280;57649;42.968;1.608;2023-02-26T15:37:39;96415.38;;;4.25;71.66
70254;BME280;57649;42.968;1.608;2023-02-26T15:40:05;96411.88;;;4.24;71.06
70254;BME280;57649;42.968;1.608;2023-02-26T15:42:35;96427.69;;;4.34;69.27
70254;BME280;57649;42.968;1.608;2023-02-26T15:45:05;96416.63;;;4.21;69.30
70254;BME280;57649;42.968;1.608;2023-02-26T15:47:33;96412.94;;;4.14;69.62
70254;BME280;57649;42.968;1.608;2023-02-26T15:49:59;96422.94;;;4.02;70.00